Time;durP1;ratioP1;P1;durP2;ratioP2;P2;SDS_P1;SDS_P2;PMS_P1;PMS_P2;Temp;Humidity;BMP_temperature;BMP_pressure;BME280_temperature;BME280_humidity;BME280_pressure;Samples;Min_cycle;Max_cycle;Signal;HPM_P1;HPM_P2
2021/03/06 00:00:12;;;;;;;11.80;10.70;;;4.00;81.80;;;;;;5094814;28;20175;-71
2021/03/06 00:02:38;;;;;;;11.63;10.60;;;4.00;81.60;;;;;;5094284;28;20175;-69
2021/03/06 00:05:06;;;;;;;11.95;10.85;;;4.00;81.80;;;;;;5094900;28;20258;-70
2021/03/06 00:07:32;;;;;;;11.40;10.20;;;4.00;81.70;;;;;;5094562;28;20548;-71
2021/03/06 00:09:57;;;;;;;12.57;11.23;;;4.00;81.80;;;;;;5095090;28;20222;-71
2021/03/06 00:12:23;;;;;;;12.03;10.80;;;4.00;82.20;;;;;;5093125;28;20635;-71
2021/03/06 00:14:49;;;;;;;10.90;9.80;;;4.00;82.10;;;;;;5074986;28;20215;-71
2021/03/06 00:17:15;;;;;;;9.90;9.00;;;3.90;81.70;;;;;;5074621;28;20207;-70
2021/03/06 00:19:40;;;;;;;10.93;9.80;;;3.90;82.10;;;;;;5074182;28;20176;-71
2021/03/06 00:22:06;;;;;;;12.20;10.30;;;3.90;82.30;;;;;;5074623;28;20168;-71
2021/03/06 00:24:32;;;;;;;11.63;10.47;;;3.80;82.60;;;;;;5081577;28;20184;-70
2021/03/06 00:26:58;;;;;;;10.88;9.90;;;3.80;82.70;;;;;;5074238;28;20194;-71
2021/03/06 00:29:24;;;;;;;12.60;11.30;;;3.80;82.70;;;;;;5073766;28;20563;-71
2021/03/06 00:31:50;;;;;;;13.13;10.53;;;3.80;82.80;;;;;;5074309;28;20183;-71
2021/03/06 00:34:15;;;;;;;10.77;9.77;;;3.80;82.70;;;;;;5074253;28;20410;-70
2021/03/06 00:36:41;;;;;;;11.13;10.13;;;3.80;82.80;;;;;;5073434;28;20244;-70
2021/03/06 00:39:07;;;;;;;12.23;10.93;;;3.80;83.00;;;;;;5074232;28;20438;-70
2021/03/06 00:41:33;;;;;;;11.40;10.43;;;3.70;82.90;;;;;;5069215;28;20541;-70
2021/03/06 00:44:00;;;;;;;12.70;11.40;;;3.70;83.10;;;;;;5066715;28;20472;-71
2021/03/06 00:46:26;;;;;;;12.00;10.90;;;3.70;83.50;;;;;;5072423;28;20414;-70
2021/03/06 00:48:52;;;;;;;13.32;11.85;;;3.70;83.80;;;;;;5073478;28;20175;-71
2021/03/06 00:51:18;;;;;;;12.17;10.87;;;3.70;84.10;;;;;;5073839;28;20222;-71
2021/03/06 00:53:44;;;;;;;15.38;11.57;;;3.70;84.00;;;;;;5073806;28;20904;-71
2021/03/06 00:56:10;;;;;;;12.27;11.07;;;3.70;84.00;;;;;;5073840;28;20203;-71
2021/03/06 00:58:36;;;;;;;11.07;10.00;;;3.70;84.90;;;;;;5072830;28;20169;-71
2021/03/06 01:01:08;;;;;;;17.55;11.43;;;3.60;83.60;;;;;;5055955;28;20176;-71
2021/03/06 01:03:34;;;;;;;11.45;10.32;;;3.60;83.60;;;;;;5073161;28;20623;-71
2021/03/06 01:06:00;;;;;;;11.00;10.00;;;3.60;83.70;;;;;;5073721;28;20191;-70
2021/03/06 01:08:26;;;;;;;12.40;11.10;;;3.60;83.50;;;;;;5072755;28;20175;-71
2021/03/06 01:10:52;;;;;;;14.80;10.57;;;3.60;83.70;;;;;;5073249;28;20520;-71
2021/03/06 01:13:18;;;;;;;11.13;10.10;;;3.70;84.10;;;;;;5071752;28;20721;-70
2021/03/06 01:15:45;;;;;;;11.60;9.77;;;3.60;84.00;;;;;;5072172;28;20457;-71
2021/03/06 01:18:11;;;;;;;10.80;9.80;;;3.60;84.30;;;;;;5091168;28;20257;-70
2021/03/06 01:20:37;;;;;;;10.68;9.68;;;3.50;84.00;;;;;;5086711;28;20184;-71
2021/03/06 01:23:03;;;;;;;11.43;10.23;;;3.50;84.10;;;;;;5081790;28;20244;-70
2021/03/06 01:25:30;;;;;;;11.50;8.93;;;3.50;84.30;;;;;;5082669;28;20171;-70
2021/03/06 01:27:56;;;;;;;10.73;9.70;;;3.50;84.40;;;;;;5080401;28;20179;-71
2021/03/06 01:30:23;;;;;;;13.27;9.53;;;3.50;84.40;;;;;;5081330;28;20667;-70
2021/03/06 01:32:49;;;;;;;10.20;9.07;;;3.50;84.60;;;;;;5080850;28;20176;-70
2021/03/06 01:35:18;;;;;;;10.55;9.55;;;3.50;84.30;;;;;;5082835;28;20203;-70
2021/03/06 01:37:43;;;;;;;9.60;8.80;;;3.40;83.90;;;;;;5081057;28;20219;-70
2021/03/06 01:40:12;;;;;;;9.63;8.73;;;3.40;84.20;;;;;;5083572;28;20580;-70
2021/03/06 01:42:38;;;;;;;10.10;8.88;;;3.40;84.30;;;;;;5080303;28;20193;-70
2021/03/06 01:45:06;;;;;;;10.18;9.18;;;3.40;84.80;;;;;;5079326;28;20527;-70
2021/03/06 01:47:32;;;;;;;12.15;9.70;;;3.40;85.10;;;;;;5086056;28;20167;-70
2021/03/06 01:49:58;;;;;;;10.43;9.00;;;3.30;85.30;;;;;;5082366;28;20217;-70
2021/03/06 01:52:25;;;;;;;9.87;8.90;;;3.30;85.40;;;;;;5069981;28;20179;-70
2021/03/06 01:54:52;;;;;;;9.73;8.82;;;3.30;85.00;;;;;;5083333;28;20202;-70
2021/03/06 01:57:18;;;;;;;10.10;9.07;;;3.40;84.90;;;;;;5080327;28;20178;-70
2021/03/06 01:59:44;;;;;;;11.10;10.10;;;3.30;85.00;;;;;;5081214;28;20621;-70
2021/03/06 02:02:10;;;;;;;10.70;9.60;;;3.20;85.70;;;;;;5071505;28;20163;-70
2021/03/06 02:04:36;;;;;;;13.27;10.67;;;3.30;86.20;;;;;;5078492;28;20401;-71
2021/03/06 02:07:02;;;;;;;11.70;10.20;;;3.20;86.00;;;;;;5072548;28;20907;-70
2021/03/06 02:09:28;;;;;;;11.32;10.10;;;3.20;85.80;;;;;;5061725;28;20568;-70
2021/03/06 02:11:58;;;;;;;11.40;10.27;;;3.20;85.60;;;;;;5072670;28;20203;-70
2021/03/06 02:14:50;;;;;;;11.50;10.02;;;3.20;85.90;;;;;;5069478;28;20198;-71
2021/03/06 02:17:45;;;;;;;11.80;10.60;;;3.10;86.00;;;;;;5072166;28;20175;-71
2021/03/06 02:20:39;;;;;;;11.20;10.02;;;3.10;85.90;;;;;;5072388;28;20518;-71
2021/03/06 02:23:23;;;;;;;11.60;10.50;;;3.10;85.90;;;;;;5072164;28;20170;-70
2021/03/06 02:26:04;;;;;;;12.70;10.25;;;3.10;86.30;;;;;;5054623;28;20175;-71
2021/03/06 02:28:51;;;;;;;10.07;9.07;;;3.10;86.60;;;;;;5071928;28;20175;-70
2021/03/06 02:31:20;;;;;;;10.95;9.60;;;3.00;86.30;;;;;;5072437;28;20198;-70
2021/03/06 02:34:05;;;;;;;9.75;8.80;;;2.60;88.30;;;;;;5071845;28;20166;-70
2021/03/06 02:36:37;;;;;;;10.57;8.13;;;2.60;89.00;;;;;;5071692;28;20232;-70
2021/03/06 02:39:05;;;;;;;9.57;8.68;;;2.80;89.00;;;;;;5071960;28;20182;-70
2021/03/06 02:41:33;;;;;;;10.10;9.15;;;2.80;88.80;;;;;;5071997;28;20180;-70
2021/03/06 02:44:01;;;;;;;10.27;9.20;;;2.80;88.40;;;;;;5070057;28;20210;-71
2021/03/06 02:46:28;;;;;;;9.60;8.65;;;2.90;88.60;;;;;;5071116;28;20244;-70
2021/03/06 02:48:54;;;;;;;9.88;8.88;;;3.00;88.70;;;;;;5054873;28;20221;-71
2021/03/06 02:51:23;;;;;;;9.40;8.57;;;3.00;88.70;;;;;;5076210;28;20179;-70
2021/03/06 02:53:50;;;;;;;9.65;8.50;;;3.00;87.90;;;;;;5075852;28;20176;-70
2021/03/06 02:56:16;;;;;;;9.45;8.55;;;3.00;87.40;;;;;;5076088;28;20211;-71
2021/03/06 02:58:51;;;;;;;9.07;8.18;;;3.10;87.10;;;;;;5075482;28;20195;-70
2021/03/06 03:01:37;;;;;;;12.70;9.00;;;3.00;87.00;;;;;;5075968;28;20194;-70
2021/03/06 03:04:31;;;;;;;9.02;7.75;;;3.00;87.30;;;;;;5076055;28;20166;-70
2021/03/06 03:07:07;;;;;;;8.80;7.90;;;3.00;87.40;;;;;;5076196;28;20178;-70
2021/03/06 03:09:36;;;;;;;9.85;8.80;;;3.00;87.50;;;;;;5057096;28;20176;-71
2021/03/06 03:12:18;;;;;;;8.63;7.78;;;3.00;87.60;;;;;;5075839;28;20282;-71
2021/03/06 03:14:47;;;;;;;9.00;8.20;;;3.00;87.00;;;;;;5073677;28;20262;-71
2021/03/06 03:17:27;;;;;;;8.68;7.88;;;2.90;86.90;;;;;;5075619;28;20663;-70
2021/03/06 03:20:15;;;;;;;9.68;8.73;;;2.90;87.20;;;;;;5075470;28;20178;-70
2021/03/06 03:22:46;;;;;;;9.10;7.90;;;2.90;86.90;;;;;;5088315;28;20176;-71
2021/03/06 03:25:13;;;;;;;9.23;8.32;;;2.90;86.70;;;;;;5096078;28;20189;-70
2021/03/06 03:27:42;;;;;;;8.50;7.70;;;2.90;86.60;;;;;;5095162;28;20177;-70
2021/03/06 03:30:13;;;;;;;9.02;8.15;;;2.90;86.30;;;;;;5095701;28;20170;-70
2021/03/06 03:32:41;;;;;;;9.95;7.50;;;2.90;86.40;;;;;;5076587;28;20178;-70
2021/03/06 03:35:11;;;;;;;13.77;8.40;;;2.90;86.40;;;;;;5095424;28;20236;-70
2021/03/06 03:37:38;;;;;;;8.77;7.88;;;2.90;86.40;;;;;;5076609;28;20222;-71
2021/03/06 03:40:05;;;;;;;8.40;7.60;;;2.90;86.50;;;;;;5095269;28;20173;-71
2021/03/06 03:42:31;;;;;;;9.05;7.80;;;2.80;86.40;;;;;;5094701;28;20167;-70
2021/03/06 03:44:58;;;;;;;9.95;8.63;;;2.80;86.50;;;;;;5095341;28;20170;-71
2021/03/06 03:47:25;;;;;;;8.90;7.65;;;2.80;86.40;;;;;;5095325;28;20205;-71
2021/03/06 03:49:51;;;;;;;11.40;8.40;;;2.80;86.60;;;;;;5077109;28;20166;-71
2021/03/06 03:52:17;;;;;;;10.93;8.23;;;2.80;86.70;;;;;;5077822;28;20223;-70
2021/03/06 03:54:42;;;;;;;9.75;8.05;;;2.80;86.60;;;;;;5073726;28;20275;-70
2021/03/06 03:57:09;;;;;;;8.30;7.50;;;2.70;86.70;;;;;;5075037;28;20610;-71
2021/03/06 03:59:35;;;;;;;8.65;7.90;;;2.80;86.20;;;;;;5073786;28;20178;-71
2021/03/06 04:02:01;;;;;;;8.35;7.55;;;2.70;86.30;;;;;;5074632;28;20183;-71
2021/03/06 04:04:27;;;;;;;8.02;7.32;;;2.70;86.50;;;;;;5074316;28;20172;-70
2021/03/06 04:06:56;;;;;;;8.87;7.50;;;2.70;86.70;;;;;;5074785;28;20624;-70
2021/03/06 04:09:23;;;;;;;9.70;8.35;;;2.60;86.60;;;;;;5074293;28;20176;-71
2021/03/06 04:11:49;;;;;;;8.90;8.07;;;2.70;86.80;;;;;;5074166;28;20204;-71
2021/03/06 04:14:15;;;;;;;8.67;7.87;;;2.70;87.20;;;;;;5090675;28;20202;-71
2021/03/06 04:16:40;;;;;;;8.43;7.63;;;2.60;87.20;;;;;;5094357;28;20405;-71
2021/03/06 04:19:06;;;;;;;9.13;8.23;;;2.70;87.30;;;;;;5095141;28;20503;-71
2021/03/06 04:21:32;;;;;;;8.50;7.70;;;2.70;86.90;;;;;;5089538;28;20185;-70
2021/03/06 04:23:58;;;;;;;9.40;7.70;;;2.70;86.80;;;;;;5094259;28;20248;-71
2021/03/06 04:26:24;;;;;;;10.02;8.43;;;2.70;86.80;;;;;;5094482;28;20183;-70
2021/03/06 04:28:50;;;;;;;9.15;8.20;;;2.70;86.80;;;;;;5076057;28;20174;-71
2021/03/06 04:31:16;;;;;;;9.98;8.73;;;2.70;86.90;;;;;;5094321;28;20181;-72
2021/03/06 04:33:42;;;;;;;11.35;7.10;;;2.70;86.40;;;;;;5094013;28;20169;-71
2021/03/06 04:36:08;;;;;;;8.83;7.93;;;2.60;86.30;;;;;;5094459;28;20286;-71
2021/03/06 04:38:34;;;;;;;8.40;7.60;;;2.60;86.30;;;;;;5075332;28;20525;-71
2021/03/06 04:41:00;;;;;;;9.53;8.40;;;2.60;86.20;;;;;;5094668;28;20400;-71
2021/03/06 04:43:26;;;;;;;9.52;7.85;;;2.60;86.30;;;;;;5094413;28;20174;-71
2021/03/06 04:45:52;;;;;;;11.77;8.50;;;2.50;86.20;;;;;;5093479;28;20178;-71
2021/03/06 04:48:18;;;;;;;9.00;8.20;;;2.60;86.70;;;;;;5094294;28;20185;-71
2021/03/06 04:50:44;;;;;;;9.15;8.35;;;2.60;86.90;;;;;;5093674;28;20180;-71
2021/03/06 04:53:09;;;;;;;8.10;7.40;;;2.60;87.00;;;;;;5089245;28;20261;-71
2021/03/06 04:55:35;;;;;;;8.60;7.90;;;2.50;86.60;;;;;;5093329;28;20205;-71
2021/03/06 04:58:01;;;;;;;8.63;7.83;;;2.50;86.10;;;;;;5093817;28;20230;-71
2021/03/06 05:00:26;;;;;;;8.50;7.60;;;2.40;86.50;;;;;;5094021;28;20205;-71
2021/03/06 05:02:52;;;;;;;8.53;7.70;;;2.40;87.10;;;;;;5093375;28;20492;-71
2021/03/06 05:05:18;;;;;;;9.20;8.20;;;2.40;87.10;;;;;;5089880;28;20227;-71
2021/03/06 05:07:44;;;;;;;10.70;8.03;;;2.40;87.00;;;;;;5093121;28;20200;-70
2021/03/06 05:10:10;;;;;;;8.53;7.73;;;2.30;87.00;;;;;;5093073;28;20407;-71
2021/03/06 05:12:36;;;;;;;7.85;7.07;;;2.40;87.20;;;;;;5092205;28;20173;-70
2021/03/06 05:15:03;;;;;;;8.73;7.95;;;2.30;87.10;;;;;;5093634;28;20206;-70
2021/03/06 05:17:29;;;;;;;11.43;8.25;;;2.30;87.10;;;;;;5093738;28;20605;-71
2021/03/06 05:19:55;;;;;;;7.97;7.18;;;2.40;87.40;;;;;;5093698;28;20209;-70
2021/03/06 05:22:21;;;;;;;9.00;8.10;;;2.40;87.70;;;;;;5075720;28;20256;-70
2021/03/06 05:24:48;;;;;;;7.78;7.07;;;2.40;88.00;;;;;;5092731;28;20174;-70
2021/03/06 05:27:15;;;;;;;7.18;5.95;;;2.50;88.00;;;;;;5093470;28;20528;-71
2021/03/06 05:29:41;;;;;;;7.57;6.07;;;2.50;87.00;;;;;;5092984;28;20201;-70
2021/03/06 05:32:07;;;;;;;7.40;6.63;;;2.50;86.50;;;;;;5093583;28;20225;-70
2021/03/06 05:34:34;;;;;;;7.95;6.88;;;2.50;86.30;;;;;;5092764;28;20589;-70
2021/03/06 05:37:00;;;;;;;7.15;6.45;;;2.50;86.70;;;;;;5088433;28;20310;-71
2021/03/06 05:39:26;;;;;;;6.28;5.78;;;2.50;86.60;;;;;;5092446;28;20181;-71
2021/03/06 05:41:52;;;;;;;6.43;5.93;;;2.50;86.10;;;;;;5092465;28;20546;-70
2021/03/06 05:44:18;;;;;;;7.15;6.53;;;2.40;85.70;;;;;;5093277;28;20484;-70
2021/03/06 05:46:44;;;;;;;7.20;6.60;;;2.50;85.60;;;;;;5092791;28;20169;-70
2021/03/06 05:49:12;;;;;;;6.65;5.95;;;2.40;85.40;;;;;;5093407;28;20415;-71
2021/03/06 05:51:39;;;;;;;7.50;6.80;;;2.40;85.40;;;;;;5092536;28;20704;-70
2021/03/06 05:54:13;;;;;;;7.38;6.75;;;2.40;86.20;;;;;;5092880;28;20496;-70
2021/03/06 05:56:41;;;;;;;6.53;5.97;;;2.40;85.40;;;;;;5092444;28;20186;-70
2021/03/06 05:59:12;;;;;;;7.00;6.40;;;2.30;85.50;;;;;;5092641;28;20173;-70
2021/03/06 06:01:39;;;;;;;7.05;6.20;;;2.30;86.00;;;;;;5069108;28;20166;-70
2021/03/06 06:04:06;;;;;;;6.35;5.75;;;2.30;85.20;;;;;;5070096;28;20539;-71
2021/03/06 06:06:33;;;;;;;6.63;6.13;;;2.30;85.40;;;;;;5072809;28;20202;-71
2021/03/06 06:09:04;;;;;;;6.32;5.82;;;2.30;85.50;;;;;;5071865;28;20175;-71
2021/03/06 06:11:30;;;;;;;6.63;6.03;;;2.30;85.60;;;;;;5072174;28;20166;-71
2021/03/06 06:13:57;;;;;;;7.72;6.30;;;2.30;85.70;;;;;;5071528;28;20186;-71
2021/03/06 06:16:23;;;;;;;6.47;5.88;;;2.30;85.50;;;;;;5072650;28;20339;-71
2021/03/06 06:18:50;;;;;;;6.93;6.22;;;2.30;85.50;;;;;;5053970;28;20170;-71
2021/03/06 06:21:41;;;;;;;6.72;6.07;;;2.30;85.60;;;;;;5072454;28;20174;-71
2021/03/06 06:24:24;;;;;;;7.97;7.25;;;2.30;85.70;;;;;;5072132;28;20171;-71
2021/03/06 06:26:58;;;;;;;7.85;6.90;;;2.30;86.00;;;;;;5054047;28;20261;-71
2021/03/06 06:29:41;;;;;;;7.30;6.60;;;2.30;86.40;;;;;;5072539;28;20175;-71
2021/03/06 06:32:10;;;;;;;8.38;7.57;;;2.30;86.60;;;;;;5072065;28;20185;-70
2021/03/06 06:34:37;;;;;;;7.90;7.20;;;2.30;86.90;;;;;;5091603;28;20239;-71
2021/03/06 06:37:14;;;;;;;8.85;7.43;;;2.30;87.20;;;;;;5092352;28;20227;-70
2021/03/06 06:39:42;;;;;;;9.00;8.15;;;2.30;87.60;;;;;;5091508;28;20210;-70
2021/03/06 06:42:08;;;;;;;7.50;6.90;;;2.30;87.70;;;;;;5091925;28;20555;-70
2021/03/06 06:44:34;;;;;;;7.22;6.60;;;2.40;87.80;;;;;;5074434;28;20677;-70
2021/03/06 06:47:16;;;;;;;7.70;6.93;;;2.40;87.90;;;;;;5092490;28;20163;-71
2021/03/06 06:49:50;;;;;;;8.05;7.35;;;2.40;88.20;;;;;;5091954;28;20192;-71
2021/03/06 06:52:21;;;;;;;7.93;7.30;;;2.50;88.20;;;;;;5092371;28;20518;-71
2021/03/06 06:54:58;;;;;;;11.55;7.70;;;2.50;87.70;;;;;;5091064;28;20201;-71
2021/03/06 06:57:28;;;;;;;8.77;7.90;;;2.50;87.70;;;;;;5092480;28;20163;-71
2021/03/06 06:59:59;;;;;;;9.68;8.45;;;2.60;87.90;;;;;;5073934;28;20257;-71
2021/03/06 07:02:29;;;;;;;9.85;8.95;;;2.60;87.20;;;;;;5087317;28;20631;-71
2021/03/06 07:04:57;;;;;;;10.73;9.38;;;2.70;86.60;;;;;;5091398;28;20170;-70
2021/03/06 07:07:25;;;;;;;8.45;7.65;;;2.70;86.40;;;;;;5087026;28;20572;-70
2021/03/06 07:10:11;;;;;;;8.88;7.60;;;2.70;86.60;;;;;;5090852;28;20174;-71
2021/03/06 07:12:40;;;;;;;9.10;7.65;;;2.70;86.60;;;;;;5090959;28;20182;-71
2021/03/06 07:15:27;;;;;;;11.18;8.85;;;2.70;86.80;;;;;;5092153;28;20197;-70
2021/03/06 07:17:55;;;;;;;10.45;7.25;;;2.80;86.90;;;;;;5091643;28;20250;-70
2021/03/06 07:20:23;;;;;;;8.98;8.05;;;2.90;87.20;;;;;;5092177;28;20163;-71
2021/03/06 07:22:50;;;;;;;9.25;8.32;;;3.00;87.00;;;;;;5091446;28;20165;-71
2021/03/06 07:25:16;;;;;;;7.95;7.25;;;3.00;86.20;;;;;;5092217;28;20629;-71
2021/03/06 07:27:43;;;;;;;9.70;8.30;;;3.10;85.70;;;;;;5091505;28;20174;-72
2021/03/06 07:30:11;;;;;;;8.10;7.30;;;3.10;85.90;;;;;;5092238;28;20528;-71
2021/03/06 07:32:41;;;;;;;8.55;7.75;;;3.20;86.10;;;;;;5091552;28;20611;-70
2021/03/06 07:35:10;;;;;;;9.20;8.32;;;3.20;85.60;;;;;;5093319;28;20255;-73
2021/03/06 07:37:37;;;;;;;8.90;7.93;;;3.30;85.50;;;;;;5090994;28;20228;-71
2021/03/06 07:40:14;;;;;;;9.55;8.65;;;3.30;85.80;;;;;;5094938;28;20179;-71
2021/03/06 07:42:54;;;;;;;10.50;8.70;;;3.50;85.20;;;;;;5094252;28;20171;-70
2021/03/06 07:45:25;;;;;;;8.15;7.45;;;3.60;84.00;;;;;;5095280;28;20167;-71
2021/03/06 07:47:57;;;;;;;12.75;8.40;;;3.60;83.70;;;;;;5094596;28;20228;-71
2021/03/06 07:50:30;;;;;;;7.72;7.00;;;3.70;83.40;;;;;;5095525;28;20172;-71
2021/03/06 07:52:57;;;;;;;8.40;7.70;;;3.70;81.70;;;;;;5094739;28;20160;-70
2021/03/06 07:55:26;;;;;;;9.82;7.97;;;3.70;81.20;;;;;;5095470;28;20211;-70
2021/03/06 07:58:17;;;;;;;8.30;7.57;;;3.80;81.90;;;;;;5095006;28;20247;-71
2021/03/06 08:00:45;;;;;;;10.52;8.82;;;3.80;83.20;;;;;;5094335;28;20167;-71
2021/03/06 08:03:23;;;;;;;8.98;8.27;;;3.90;83.20;;;;;;5095211;28;20167;-71
2021/03/06 08:05:50;;;;;;;9.55;8.60;;;4.00;82.40;;;;;;5094419;28;20176;-70
2021/03/06 08:08:51;;;;;;;10.57;9.48;;;4.00;81.80;;;;;;5075682;28;20173;-71
2021/03/06 08:11:33;;;;;;;11.00;8.80;;;4.10;82.10;;;;;;5020892;28;20198;-70
2021/03/06 08:14:01;;;;;;;10.85;9.40;;;4.10;81.50;;;;;;5073296;28;20195;-71
2021/03/06 08:16:27;;;;;;;10.02;8.43;;;4.10;81.70;;;;;;5074294;28;20199;-71
2021/03/06 08:19:02;;;;;;;11.60;10.40;;;4.00;82.20;;;;;;5073450;28;20171;-71
2021/03/06 08:21:42;;;;;;;11.02;9.35;;;4.00;83.10;;;;;;5074428;28;20179;-71
2021/03/06 08:24:14;;;;;;;13.45;9.88;;;4.10;83.40;;;;;;5056421;28;20173;-71
2021/03/06 08:26:41;;;;;;;13.57;9.98;;;4.30;83.60;;;;;;5073977;28;20172;-71
2021/03/06 08:29:22;;;;;;;12.18;9.85;;;4.20;83.20;;;;;;5073795;28;20177;-71
2021/03/06 08:32:02;;;;;;;9.30;8.40;;;4.40;84.40;;;;;;5073675;28;20639;-71
2021/03/06 08:34:27;;;;;;;11.20;9.48;;;4.40;82.60;;;;;;5073690;28;20486;-71
2021/03/06 08:39:44;;;;;;;10.82;9.85;;;4.50;83.10;;;;;;5062498;28;20251;-70
2021/03/06 08:42:11;;;;;;;13.45;10.73;;;4.50;84.00;;;;;;5074087;28;20188;-70
2021/03/06 08:44:38;;;;;;;9.80;8.90;;;4.60;84.30;;;;;;5074014;28;20213;-70
2021/03/06 08:47:05;;;;;;;10.50;9.50;;;4.70;83.60;;;;;;5072971;28;20169;-70
2021/03/06 08:49:31;;;;;;;9.80;8.82;;;4.70;81.90;;;;;;5074023;28;20215;-70
2021/03/06 08:51:57;;;;;;;11.13;8.90;;;4.80;82.30;;;;;;5055582;28;20521;-70
2021/03/06 08:54:24;;;;;;;8.30;7.50;;;4.90;81.50;;;;;;5073632;28;20181;-71
2021/03/06 08:56:50;;;;;;;9.38;8.48;;;5.00;81.70;;;;;;5073174;28;20181;-71
2021/03/06 08:59:16;;;;;;;9.35;7.80;;;5.10;82.90;;;;;;5073778;28;20161;-71
2021/03/06 09:01:43;;;;;;;8.30;7.57;;;5.30;81.60;;;;;;5073019;28;20709;-70
2021/03/06 09:04:10;;;;;;;10.30;7.07;;;5.40;79.50;;;;;;5073695;28;20400;-71
2021/03/06 09:06:37;;;;;;;7.68;7.07;;;5.50;78.30;;;;;;5053878;28;20198;-70
2021/03/06 09:09:11;;;;;;;8.23;7.47;;;5.50;77.10;;;;;;5064148;28;20246;-70
2021/03/06 09:11:59;;;;;;;9.38;8.50;;;5.70;79.10;;;;;;5072963;28;20176;-71
2021/03/06 09:14:25;;;;;;;8.55;7.85;;;5.90;79.60;;;;;;5073086;28;20174;-71
2021/03/06 09:16:51;;;;;;;8.88;7.97;;;6.00;78.60;;;;;;5072608;28;20522;-71
2021/03/06 09:19:28;;;;;;;10.35;7.93;;;6.10;76.80;;;;;;5073500;28;20192;-71
2021/03/06 09:22:02;;;;;;;10.10;7.73;;;6.20;75.00;;;;;;5072936;28;20176;-71
2021/03/06 09:24:47;;;;;;;7.67;6.97;;;6.30;76.20;;;;;;5073378;28;20403;-71
2021/03/06 09:27:14;;;;;;;11.00;8.27;;;6.50;75.40;;;;;;5073233;28;20394;-70
2021/03/06 09:29:41;;;;;;;10.33;8.43;;;6.70;74.70;;;;;;5073211;28;20171;-71
2021/03/06 09:32:08;;;;;;;10.13;9.13;;;6.80;72.60;;;;;;5081175;28;20462;-70
2021/03/06 09:34:35;;;;;;;9.43;8.10;;;6.80;72.70;;;;;;5093462;28;20176;-71
2021/03/06 09:37:18;;;;;;;10.90;7.90;;;7.00;73.80;;;;;;5092629;28;20232;-71
2021/03/06 09:39:44;;;;;;;10.87;8.00;;;7.30;74.50;;;;;;5077953;28;20870;-71
2021/03/06 09:42:16;;;;;;;8.60;7.73;;;7.70;74.70;;;;;;5072920;28;20736;-71
2021/03/06 09:44:48;;;;;;;8.63;7.80;;;8.20;74.30;;;;;;5073035;28;20398;-71
2021/03/06 09:47:23;;;;;;;7.47;6.97;;;8.60;72.90;;;;;;5072963;28;20379;-71
2021/03/06 09:49:49;;;;;;;8.23;7.53;;;9.00;74.10;;;;;;5072435;28;20425;-71
2021/03/06 09:52:15;;;;;;;8.33;7.53;;;9.30;73.00;;;;;;5072716;28;20443;-71
2021/03/06 09:54:41;;;;;;;8.50;7.57;;;9.70;71.80;;;;;;5072518;28;20444;-71
2021/03/06 09:57:07;;;;;;;9.73;7.57;;;10.10;67.50;;;;;;5053950;28;20419;-71
2021/03/06 09:59:41;;;;;;;8.10;7.37;;;10.40;64.70;;;;;;5072626;28;20179;-71
2021/03/06 10:02:09;;;;;;;12.10;8.20;;;10.60;63.80;;;;;;5072049;28;20928;-71
2021/03/06 10:04:35;;;;;;;8.53;7.70;;;10.50;60.70;;;;;;5072741;28;20413;-71
2021/03/06 10:07:10;;;;;;;8.60;7.70;;;10.40;62.70;;;;;;5079984;28;20464;-71
2021/03/06 10:09:36;;;;;;;9.57;7.90;;;10.70;60.90;;;;;;5092979;28;20418;-71
2021/03/06 10:12:15;;;;;;;8.03;7.07;;;10.50;59.50;;;;;;5092120;28;20402;-71
2021/03/06 10:14:41;;;;;;;7.33;6.50;;;10.40;60.60;;;;;;5074646;28;20472;-71
2021/03/06 10:17:09;;;;;;;7.57;6.87;;;10.70;62.40;;;;;;5079545;28;20753;-71
2021/03/06 10:19:51;;;;;;;10.73;7.67;;;10.40;59.10;;;;;;5082478;28;20918;-71
2021/03/06 10:22:18;;;;;;;8.00;7.00;;;10.40;61.70;;;;;;5082151;28;20481;-71
2021/03/06 10:25:03;;;;;;;6.73;6.17;;;10.90;62.00;;;;;;5080868;28;20417;-71
2021/03/06 10:27:42;;;;;;;7.37;5.73;;;10.90;59.50;;;;;;5081513;28;20487;-71
2021/03/06 10:30:16;;;;;;;8.50;5.80;;;11.00;59.80;;;;;;5080398;28;20406;-71
2021/03/06 10:32:47;;;;;;;5.60;5.20;;;11.20;60.70;;;;;;5079723;28;20405;-71
2021/03/06 10:35:32;;;;;;;7.83;6.93;;;11.60;61.50;;;;;;5072280;28;20782;-71
2021/03/06 10:38:00;;;;;;;6.10;5.50;;;12.00;61.90;;;;;;5084609;28;20930;-71
2021/03/06 10:40:57;;;;;;;5.80;5.30;;;12.30;58.80;;;;;;5092449;28;20864;-71
2021/03/06 10:43:40;;;;;;;4.67;4.27;;;12.50;57.70;;;;;;5092587;28;20507;-71
2021/03/06 10:46:09;;;;;;;6.00;5.40;;;12.70;56.20;;;;;;5092091;28;20404;-71
2021/03/06 10:48:35;;;;;;;5.80;5.23;;;12.80;57.20;;;;;;5092403;28;20487;-71
2021/03/06 10:51:01;;;;;;;4.60;4.20;;;12.90;57.00;;;;;;5091515;28;20422;-71
2021/03/06 10:53:28;;;;;;;4.77;4.37;;;12.80;54.80;;;;;;5092255;28;20450;-71
2021/03/06 10:55:54;;;;;;;4.63;3.90;;;12.50;54.50;;;;;;5092005;28;20460;-70
2021/03/06 10:58:20;;;;;;;5.80;4.33;;;12.50;55.40;;;;;;5092251;28;20412;-71
2021/03/06 11:00:48;;;;;;;5.33;4.93;;;12.40;54.10;;;;;;5091758;28;20415;-71
2021/03/06 11:03:14;;;;;;;6.80;5.57;;;11.90;54.50;;;;;;5083325;28;20445;-71
2021/03/06 11:05:41;;;;;;;6.20;5.60;;;10.70;55.20;;;;;;5081573;28;20890;-71
2021/03/06 11:08:19;;;;;;;5.40;4.37;;;11.00;59.80;;;;;;5073665;28;20953;-71
2021/03/06 11:10:48;;;;;;;5.30;4.80;;;11.40;58.20;;;;;;5075378;28;20756;-70
2021/03/06 11:13:15;;;;;;;5.80;5.07;;;11.60;56.40;;;;;;5096270;28;20489;-70
2021/03/06 11:15:48;;;;;;;6.40;5.77;;;11.50;56.90;;;;;;5096039;28;20457;-71
2021/03/06 11:18:14;;;;;;;8.57;6.27;;;11.90;57.00;;;;;;5095792;28;20402;-70
2021/03/06 11:20:41;;;;;;;6.80;6.10;;;11.70;55.60;;;;;;5096045;28;20820;-70
2021/03/06 11:23:07;;;;;;;6.10;5.60;;;11.80;58.40;;;;;;5095437;28;20308;-70
2021/03/06 11:25:33;;;;;;;6.30;5.70;;;12.10;57.50;;;;;;5095910;28;20413;-70
2021/03/06 11:28:02;;;;;;;7.20;6.50;;;12.40;57.90;;;;;;5095424;28;20502;-70
2021/03/06 11:30:36;;;;;;;7.73;7.13;;;12.60;56.30;;;;;;5095439;28;20416;-70
2021/03/06 11:33:05;;;;;;;9.23;6.43;;;12.50;54.60;;;;;;5095159;28;20386;-70
2021/03/06 11:35:31;;;;;;;7.30;6.60;;;12.50;54.40;;;;;;5095553;28;20551;-72
2021/03/06 11:37:58;;;;;;;6.50;5.90;;;12.70;54.50;;;;;;5094992;28;20480;-71
2021/03/06 11:40:30;;;;;;;7.33;6.73;;;12.90;55.30;;;;;;5075440;28;20426;-71
2021/03/06 11:42:56;;;;;;;6.87;6.30;;;13.00;56.60;;;;;;5074610;28;20407;-71
2021/03/06 11:45:22;;;;;;;6.53;6.03;;;12.60;57.30;;;;;;5075294;28;20874;-71
2021/03/06 11:47:49;;;;;;;7.07;6.57;;;12.30;56.80;;;;;;5074654;28;20493;-71
2021/03/06 11:50:18;;;;;;;6.33;5.70;;;12.20;57.50;;;;;;5075220;28;20403;-71
2021/03/06 11:52:44;;;;;;;5.87;5.37;;;12.40;57.60;;;;;;5074739;28;20407;-71
2021/03/06 11:55:12;;;;;;;5.27;4.20;;;12.60;56.70;;;;;;5074093;28;21149;-72
2021/03/06 11:57:39;;;;;;;5.40;4.90;;;12.80;55.90;;;;;;5075289;28;20452;-71
2021/03/06 12:00:10;;;;;;;5.70;5.30;;;13.00;55.10;;;;;;5074172;28;20797;-72
2021/03/06 12:02:36;;;;;;;8.73;6.00;;;13.20;54.90;;;;;;5057231;28;20411;-73
2021/03/06 12:05:03;;;;;;;6.30;5.70;;;12.80;52.10;;;;;;5074273;28;20426;-72
2021/03/06 12:07:29;;;;;;;5.27;4.60;;;11.90;52.50;;;;;;5081624;28;20178;-72
2021/03/06 12:09:55;;;;;;;5.40;5.10;;;11.50;53.20;;;;;;5094378;28;20762;-72
2021/03/06 12:12:21;;;;;;;5.20;4.70;;;11.50;55.00;;;;;;5094402;28;20171;-73
2021/03/06 12:14:46;;;;;;;5.47;4.97;;;11.70;54.50;;;;;;5074542;28;20341;-73
2021/03/06 12:17:12;;;;;;;5.37;4.87;;;12.00;55.50;;;;;;5073830;28;20645;-72
2021/03/06 12:19:38;;;;;;;7.03;4.77;;;12.20;56.60;;;;;;5074582;28;20172;-72
2021/03/06 12:22:04;;;;;;;4.97;4.30;;;12.40;56.70;;;;;;5073554;28;20176;-72
2021/03/06 12:24:30;;;;;;;6.73;4.70;;;12.50;57.40;;;;;;5074233;28;20425;-72
2021/03/06 12:26:56;;;;;;;5.43;4.90;;;12.70;57.30;;;;;;5086416;28;20887;-72
2021/03/06 12:29:22;;;;;;;5.43;4.93;;;12.80;55.90;;;;;;5094855;28;20168;-72
2021/03/06 12:31:48;;;;;;;4.93;4.57;;;12.90;54.30;;;;;;5094727;28;20261;-72
2021/03/06 12:34:14;;;;;;;6.10;4.30;;;13.00;54.30;;;;;;5093693;28;20399;-72
2021/03/06 12:36:40;;;;;;;5.60;5.20;;;13.00;53.40;;;;;;5094294;28;20859;-72
2021/03/06 12:39:06;;;;;;;8.73;6.10;;;13.00;50.90;;;;;;5093864;28;20490;-72
2021/03/06 12:41:32;;;;;;;5.57;4.07;;;12.50;51.00;;;;;;5094351;28;20172;-72
2021/03/06 12:43:59;;;;;;;3.80;3.60;;;12.30;51.80;;;;;;5075747;28;20416;-72
2021/03/06 12:46:25;;;;;;;4.33;3.93;;;12.50;52.70;;;;;;5094675;28;20402;-72
2021/03/06 12:48:52;;;;;;;5.10;4.40;;;12.60;52.50;;;;;;5094178;28;20503;-72
2021/03/06 12:51:18;;;;;;;4.10;3.90;;;11.80;50.70;;;;;;5094257;28;20488;-72
2021/03/06 12:53:44;;;;;;;4.40;4.03;;;11.30;51.80;;;;;;5094236;28;20405;-72
2021/03/06 12:56:10;;;;;;;4.87;3.90;;;11.50;54.20;;;;;;5093462;28;20527;-72
2021/03/06 12:58:36;;;;;;;4.20;4.00;;;11.80;53.50;;;;;;5093864;28;20175;-72
2021/03/06 13:01:02;;;;;;;5.30;4.03;;;11.70;51.20;;;;;;5093396;28;20399;-71
2021/03/06 13:03:27;;;;;;;4.20;3.90;;;11.40;52.00;;;;;;5094216;28;20420;-72